Messwerte Al Udeid

Temperatur

Temperatur
°C
1623751200 13.00 13.00 43
1623754800 14.00 14.00 44
1623758400 15.00 15.00 44
1623762000 16.00 16.00 44
1623765600 17.00 17.00
1623769200 18.00 18.00
1623772800 19.00 19.00 35
1623776400 20.00 20.00 33
1623780000 21.00 21.00 31
1623783600 22.00 22.00 30
1623787200 23.00 23.00 30
1623790800 0.00 0.00 29
1623794400 1.00 1.00 29
1623798000 2.00 2.00 28
1623801600 3.00 3.00
1623805200 4.00 4.00 30
1623808800 5.00 5.00 31
1623812400 6.00 6.00 32
1623816000 7.00 7.00
1623819600 8.00 8.00 37
1623823200 9.00 9.00
1623826800 10.00 10.00 41
1623830400 11.00 11.00 42
1623834000 12.00 12.00 42

Aktuellste Messwerte

Wettercharakter
Wetter: sonnig
Temperatur
41 °C
Feuchtigkeit
15 %
Wind
65 km/hWindrichtung: Nordwest
Böen
70 km/h
Luftdruck
999 hPa
Messzeit: 16. Juni 2021, 13.00Datenquelle: METAR

Weitere Messstationen in der Nähe

Messstation Temperatur Entfernung
Doha 42 °C 26 km
Manama 36 °C 137 km
Dhahran 44 °C 165 km
Al Ahsa 44 °C 185 km
Dammam-King Fahd International Airport 44 °C 207 km
Assaluyeh 39 °C 281 km
Kish Island / Kish 35 °C 304 km

Wind

Windrichtung Böen Mittelwind
° km/h km/h
1623751200 13.00 12.00 - 13.00 310° 30
1623754800 14.00 13.00 - 14.00 320° 30
1623758400 15.00 14.00 - 15.00 300° 40
1623762000 16.00 15.00 - 16.00 330° 40 30
1623765600 17.00 16.00 - 17.00
1623769200 18.00 17.00 - 18.00
1623772800 19.00 18.00 - 19.00 110° 15
1623776400 20.00 19.00 - 20.00 150° 15
1623780000 21.00 20.00 - 21.00 150° 10
1623783600 22.00 21.00 - 22.00 170° 10
1623787200 23.00 22.00 - 23.00 200° 5
1623790800 0.00 23.00 - 0.00 220° 10
1623794400 1.00 0.00 - 1.00 210° 20
1623798000 2.00 1.00 - 2.00 250° 10
1623801600 3.00 2.00 - 3.00
1623805200 4.00 3.00 - 4.00 270° 20
1623808800 5.00 4.00 - 5.00 290° 20
1623812400 6.00 5.00 - 6.00 300° 20
1623816000 7.00 6.00 - 7.00
1623819600 8.00 7.00 - 8.00 330° 35
1623823200 9.00 8.00 - 9.00
1623826800 10.00 9.00 - 10.00 340° 65 55
1623830400 11.00 10.00 - 11.00 340° 70 60
1623834000 12.00 11.00 - 12.00 340° 60 50

Ihre Wetterstation

Fehlt Ihre Wetterstation auf unserem Portal?

Schreiben Sie an network@meteonews.ch

Klima

Wann ist es am wärmsten? Wann regnet es am wenigsten? Unsere Klimadaten geben Auskunft.